Flight Track Log - Related Links

Times and Time Zones

All times are in EDT time to prevent confusion due to time zone crossing. See the ANT507 flight status page for this flight to view local times or setup timezone preferences in your user account.


Time Position Orientation Groundspeed Altitude Reporting Facility
EDT Latitude Longitude Course Direction KTS MPH feet Rate Location/Type
Sun 12:22:00 PM 60.1993 -133.8687 122° Southeast  Level FlightAware Approximate
Sun 12:23:00 PM 60.1319 -133.6677 125° Southeast  Level FlightAware Approximate
Sun 12:24:00 PM 60.0620 -133.4705 126° Southeast  Level FlightAware Approximate
Sun 12:25:00 PM 59.9905 -133.2760 126° Southeast  Level FlightAware Approximate
Sun 12:26:00 PM 59.9249 -133.0747 124° Southeast  Level FlightAware Approximate
Sun 12:27:00 PM 59.8524 -132.8826 127° Southeast  Level FlightAware Approximate
Sun 12:28:00 PM 59.7841 -132.6849 123° Southeast  Level FlightAware Approximate
Sun 12:29:00 PM 59.7175 -132.4853 123° Southeast  Level FlightAware Approximate
Sun 12:30:00 PM 59.6509 -132.2860 123° Southeast  Level FlightAware Approximate
Sun 12:31:00 PM 59.5798 -132.0934 126° Southeast  Level FlightAware Approximate
Sun 12:32:00 PM 59.5083 -131.9017 126° Southeast  Level FlightAware Approximate
Sun 12:33:00 PM 59.4365 -131.7109 126° Southeast  Level FlightAware Approximate
Sun 12:34:00 PM 59.3645 -131.5208 127° Southeast  Level FlightAware Approximate
Sun 12:35:00 PM 59.2922 -131.3315 127° Southeast  Level FlightAware Approximate
Sun 12:36:00 PM 59.2196 -131.1431 127° Southeast  Level FlightAware Approximate
Sun 12:37:00 PM 59.1467 -130.9554 127° Southeast  Level FlightAware Approximate
Sun 12:38:00 PM 59.0736 -130.7686 127° Southeast  Level FlightAware Approximate
Sun 12:39:00 PM 59.0002 -130.5825 127° Southeast  Level FlightAware Approximate
Sun 12:40:00 PM 58.9266 -130.3972 128° Southeast  Level FlightAware Approximate
Sun 12:41:00 PM 58.8526 -130.2127 128° Southeast  Level FlightAware Approximate
Sun 12:42:00 PM 58.7784 -130.0290 128° Southeast  Level FlightAware Approximate
Sun 12:43:00 PM 58.7115 -129.8357 123° Southeast  Level FlightAware Approximate
Sun 12:44:00 PM 58.6457 -129.6412 123° Southeast  Level FlightAware Approximate
Sun 12:45:00 PM 58.5797 -129.4474 123° Southeast  Level FlightAware Approximate
Sun 12:46:00 PM 58.5133 -129.2544 123° Southeast  Level FlightAware Approximate
Sun 12:47:00 PM 58.4467 -129.0621 123° Southeast  Level FlightAware Approximate
Sun 12:48:00 PM 58.3797 -128.8705 124° Southeast  Level FlightAware Approximate
Sun 12:49:00 PM 58.3125 -128.6796 124° Southeast  Level FlightAware Approximate
Sun 12:50:00 PM 58.2450 -128.4895 124° Southeast  Level FlightAware Approximate
Sun 12:51:00 PM 58.1772 -128.3000 124° Southeast  Level FlightAware Approximate
Sun 12:52:00 PM 58.1092 -128.1114 124° Southeast  Level FlightAware Approximate
Sun 12:53:00 PM 58.0408 -127.9234 124° Southeast  Level FlightAware Approximate
Sun 12:54:00 PM 57.9722 -127.7361 125° Southeast  Level FlightAware Approximate
Sun 12:55:00 PM 57.9033 -127.5496 125° Southeast  Level FlightAware Approximate
Sun 12:56:00 PM 57.8341 -127.3638 125° Southeast  Level FlightAware Approximate
Sun 12:57:00 PM 57.7647 -127.1787 125° Southeast  Level FlightAware Approximate
Sun 12:58:00 PM 57.6950 -126.9943 125° Southeast  Level FlightAware Approximate
Sun 12:59:00 PM 57.6250 -126.8106 125° Southeast  Level FlightAware Approximate
Sun 01:00:00 PM 57.5548 -126.6276 126° Southeast  Level FlightAware Approximate
Sun 01:01:00 PM 57.4843 -126.4454 126° Southeast  Level FlightAware Approximate
Sun 01:02:00 PM 57.4122 -126.2657 127° Southeast  Level FlightAware Approximate
Sun 01:03:00 PM 57.3393 -126.0873 127° Southeast  Level FlightAware Approximate
Sun 01:04:00 PM 57.2662 -125.9097 127° Southeast  Level FlightAware Approximate
Sun 01:05:00 PM 57.1929 -125.7328 127° Southeast  Level FlightAware Approximate
Sun 01:06:00 PM 57.1193 -125.5565 128° Southeast  Level FlightAware Approximate
Sun 01:07:00 PM 57.0455 -125.3810 128° Southeast  Level FlightAware Approximate
Sun 01:08:00 PM 56.9714 -125.2062 128° Southeast  Level FlightAware Approximate
Sun 01:08:07 PM 57.0833 -125.6000 127° Southeast 470 541 35,000  Level Edmonton Center
Sun 01:09:00 PM 56.8971 -125.0320 128° Southeast  Level FlightAware Approximate
Sun 01:09:07 PM 57.0167 -125.4000 121° Southeast 460 529 35,000  Level Edmonton Center
Sun 01:10:00 PM 56.8241 -124.8563 127° Southeast  Level FlightAware Approximate
Sun 01:10:07 PM 56.9333 -125.2333 132° Southeast 450 518 35,000  Level Edmonton Center
Sun 01:11:00 PM 56.7513 -124.6808 127° Southeast  Level FlightAware Approximate
Sun 01:11:07 PM 56.8667 -125.0333 121° Southeast 460 529 35,000  Level Edmonton Center
Sun 01:12:00 PM 56.6782 -124.5059 127° Southeast  Level FlightAware Approximate
Sun 01:12:07 PM 56.7833 -124.8500 130° Southeast 460 529 35,000  Level Edmonton Center
Sun 01:13:00 PM 56.6048 -124.3317 127° Southeast  Level FlightAware Approximate
Sun 01:13:07 PM 56.7000 -124.6500 127° Southeast 460 529 35,000  Level Edmonton Center
Sun 01:14:07 PM 56.6333 -124.4833 126° Southeast 460 529 35,000  Level Edmonton Center
Sun 01:15:07 PM 56.5500 -124.2833 127° Southeast 460 529 35,000  Level Edmonton Center
Sun 01:16:07 PM 56.4667 -124.1000 129° Southeast 460 529 35,000  Level Edmonton Center
Sun 01:17:07 PM 56.3833 -123.9333 132° Southeast 460 529 35,000  Level Edmonton Center
Sun 01:18:07 PM 56.3167 -123.7333 121° Southeast 460 529 35,000  Level Edmonton Center
Sun 01:19:07 PM 56.2333 -123.5667 132° Southeast 470 541 35,000  Level Edmonton Center
Sun 01:20:07 PM 56.1333 -123.3667 132° Southeast 470 541 35,000  Level Edmonton Center
Sun 01:21:07 PM 56.0667 -123.2000 126° Southeast 460 529 35,000  Level Edmonton Center
Sun 01:22:07 PM 55.9833 -123.0167 129° Southeast 470 541 35,000  Level Edmonton Center
Sun 01:23:07 PM 55.9167 -122.8167 121° Southeast 460 529 35,000  Level Edmonton Center
Sun 01:24:07 PM 55.8167 -122.6500 137° Southeast 470 541 35,000  Level Edmonton Center
Sun 01:25:07 PM 55.7333 -122.4500 126° Southeast 470 541 35,000  Level Edmonton Center
Sun 01:26:07 PM 55.6333 -122.2833 137° Southeast 470 541 35,000  Level Edmonton Center
Sun 01:27:07 PM 55.5667 -122.1000 123° Southeast 460 529 35,000  Level Edmonton Center
Sun 01:28:07 PM 55.4833 -121.9333 131° Southeast 460 529 35,000  Level Edmonton Center
Sun 01:29:07 PM 55.4000 -121.7500 129° Southeast 460 529 35,000  Level Edmonton Center
Sun 01:30:07 PM 55.3167 -121.6000 134° Southeast 460 529 35,000  Level Edmonton Center
Sun 01:31:07 PM 55.2333 -121.4000 126° Southeast 470 541 35,000  Level Edmonton Center
Sun 01:32:07 PM 55.1500 -121.2500 134° Southeast 470 541 35,000  Level Edmonton Center
Sun 01:33:07 PM 55.0500 -121.0500 131° Southeast 460 529 35,000  Level Edmonton Center
Sun 01:34:07 PM 54.9833 -120.8667 122° Southeast 460 529 35,000  Level Edmonton Center
Sun 01:35:07 PM 54.9000 -120.7167 134° Southeast 460 529 35,000  Level Edmonton Center
Sun 01:36:07 PM 54.8167 -120.5333 128° Southeast 460 529 35,000  Level Edmonton Center
Sun 01:37:07 PM 54.7333 -120.3833 134° Southeast 460 529 35,000  Level Edmonton Center
Sun 01:38:07 PM 54.6333 -120.1833 131° Southeast 460 529 35,000  Level Edmonton Center
Sun 01:39:07 PM 54.5500 -120.0333 134° Southeast 460 529 35,000  Level Edmonton Center
Sun 01:40:07 PM 54.4667 -119.8500 128° Southeast 460 529 35,000  Level Edmonton Center
Sun 01:41:07 PM 54.3833 -119.7000 134° Southeast 460 529 35,000  Level Edmonton Center
Sun 01:42:07 PM 54.2833 -119.5167 133° Southeast 460 529 35,000  Level Edmonton Center
Sun 01:43:07 PM 54.2000 -119.3667 133° Southeast 470 541 35,000  Level Edmonton Center
Sun 01:44:07 PM 54.1167 -119.2000 130° Southeast 470 541 35,000  Level Edmonton Center
Sun 01:45:07 PM 54.0333 -119.0167 128° Southeast 470 541 35,000  Level Edmonton Center
Sun 01:46:07 PM 53.9333 -118.8667 139° Southeast 470 541 35,000  Level Edmonton Center
Sun 01:47:07 PM 53.8500 -118.7000 130° Southeast 470 541 35,000  Level Edmonton Center
Sun 01:48:07 PM 53.7667 -118.5500 133° Southeast 460 529 35,000  Level Edmonton Center
Sun 01:49:07 PM 53.6833 -118.3667 127° Southeast 460 529 35,000  Level Edmonton Center
Sun 01:50:07 PM 53.5833 -118.2000 135° Southeast 460 529 35,000  Level Edmonton Center
Sun 01:51:07 PM 53.5000 -118.0500 133° Southeast 460 529 35,000  Level Edmonton Center
Sun 01:52:07 PM 53.4167 -117.9167 136° Southeast 460 529 35,000  Level Edmonton Center
Sun 01:53:07 PM 53.3333 -117.7333 127° Southeast 460 529 35,000  Level Edmonton Center
Sun 01:54:07 PM 53.2500 -117.6000 136° Southeast 460 529 35,000  Level Edmonton Center
Sun 01:55:07 PM 53.1500 -117.4167 132° Southeast 460 529 35,000  Level Edmonton Center
Sun 01:56:07 PM 53.0667 -117.2833 136° Southeast 460 529 35,000  Level Edmonton Center
Sun 01:57:07 PM 52.9667 -117.1167 135° Southeast 450 518 35,000  Level Edmonton Center
Sun 01:58:07 PM 52.8833 -116.9667 133° Southeast 460 529 35,000  Level Edmonton Center
Sun 01:59:07 PM 52.8000 -116.8000 130° Southeast 450 518 35,000  Level Edmonton Center
Sun 02:00:07 PM 52.7167 -116.6667 136° Southeast 460 529 35,000  Level Edmonton Center
Sun 02:01:07 PM 52.6167 -116.5000 135° Southeast 450 518 35,000  Level Edmonton Center
Sun 02:02:07 PM 52.5333 -116.3667 136° Southeast 460 529 35,000  Level Edmonton Center
Sun 02:03:07 PM 52.4333 -116.2000 135° Southeast 460 529 35,000  Level Edmonton Center
Sun 02:04:07 PM 52.3500 -116.0667 136° Southeast 460 529 35,000  Level Edmonton Center
Sun 02:05:07 PM 52.2667 -115.9000 129° Southeast 460 529 35,000 -1,150 Level Edmonton Center
Sun 02:06:07 PM 52.1667 -115.7667 141° Southeast 460 529 32,700 -2,850 Descending Edmonton Center
Sun 02:07:07 PM 52.0667 -115.6000 134° Southeast 460 529 29,300 -3,000 Descending Edmonton Center
Sun 02:08:07 PM 51.9833 -115.4333 129° Southeast 460 529 26,700 -2,650 Descending Edmonton Center
Sun 02:09:07 PM 51.9000 -115.3167 139° Southeast 450 518 24,000 -2,500 Descending Edmonton Center
Sun 02:10:07 PM 51.8000 -115.1833 140° Southeast 440 506 21,700 -2,350 Descending Edmonton Center
Sun 02:11:07 PM 51.7333 -115.0500 129° Southeast 430 495 19,300 -2,500 Descending Edmonton Center
Sun 02:12:07 PM 51.6333 -114.8833 134° Southeast 420 483 16,700 -2,450 Descending Edmonton Center
Sun 02:13:07 PM 51.5667 -114.7667 133° Southeast 410 472 14,400 -2,350 Descending Edmonton Center
Sun 02:14:07 PM 51.5000 -114.6333 129° Southeast 390 449 12,000 -1,500 Descending Edmonton Center
Sun 02:15:07 PM 51.4167 -114.5167 139° Southeast 350 403 11,400 -750 Descending Edmonton Center
Sun 02:16:07 PM 51.3333 -114.4667 159° South 320 368 10,500 -1,050 Descending Edmonton Center
Sun 02:17:07 PM 51.2667 -114.4000 148° Southeast 300 345 9,300 -1,250 Descending Edmonton Center
Sun 02:18:07 PM 51.2000 -114.3500 155° Southeast 290 334 8,000 -1,050 Descending Edmonton Center
Sun 02:19:07 PM 51.1333 -114.2833 148° Southeast 250 288 7,200 -750 Descending Edmonton Center
Sun 02:20:07 PM 51.0667 -114.2500 163° South 250 288 6,500 -350 Descending Edmonton Center
Sun 02:21:07 PM 51.0000 -114.2000 155° Southeast 230 265 6,500 -50 Level Edmonton Center
Sun 02:22:07 PM 50.9667 -114.1500 137° Southeast 220 253 6,400 -600 Descending Edmonton Center
Sun 02:23:07 PM 50.9667 -114.0667 90° East 190 219 5,300 -850 Descending Edmonton Center
Sun 02:24:07 PM 51.0167 -114.0500 12° North 150 173 4,700 -700 Descending Edmonton Center
Sun 02:25:07 PM 51.0500 -114.0500 360° North 140 161 3,900 -600 Descending Edmonton Center
Sun 02:26:07 PM 51.0833 -114.0333 17° North 140 161 3,500 -400 Descending Edmonton Center

Login

Don't have an account? Register now (free) for customized features, flight alerts, and more!